sensor_id;sensor_type;location;lat;lon;timestamp;temperature;humidity
13928;DHT22;7036;50.834;4.718;2023-01-28T00:00:03;17.40;49.20
13928;DHT22;7036;50.834;4.718;2023-01-28T00:02:31;17.40;49.40
13928;DHT22;7036;50.834;4.718;2023-01-28T00:04:59;17.40;49.40
13928;DHT22;7036;50.834;4.718;2023-01-28T00:07:27;17.40;49.40
13928;DHT22;7036;50.834;4.718;2023-01-28T00:09:55;17.40;49.00
13928;DHT22;7036;50.834;4.718;2023-01-28T00:12:23;17.30;49.70
13928;DHT22;7036;50.834;4.718;2023-01-28T00:14:51;17.30;49.90
13928;DHT22;7036;50.834;4.718;2023-01-28T00:17:20;17.30;48.70
13928;DHT22;7036;50.834;4.718;2023-01-28T00:19:46;17.30;49.20
13928;DHT22;7036;50.834;4.718;2023-01-28T00:22:14;17.30;49.30
13928;DHT22;7036;50.834;4.718;2023-01-28T00:24:41;17.30;49.20
13928;DHT22;7036;50.834;4.718;2023-01-28T00:27:09;17.30;49.30
13928;DHT22;7036;50.834;4.718;2023-01-28T00:29:37;17.30;49.20
13928;DHT22;7036;50.834;4.718;2023-01-28T00:32:04;17.30;49.20
13928;DHT22;7036;50.834;4.718;2023-01-28T00:34:31;17.30;49.20
13928;DHT22;7036;50.834;4.718;2023-01-28T00:36:59;17.30;49.30
13928;DHT22;7036;50.834;4.718;2023-01-28T00:39:27;17.30;49.90
13928;DHT22;7036;50.834;4.718;2023-01-28T00:41:56;17.20;49.30
13928;DHT22;7036;50.834;4.718;2023-01-28T00:44:25;17.30;49.20
13928;DHT22;7036;50.834;4.718;2023-01-28T00:46:51;17.20;49.20
13928;DHT22;7036;50.834;4.718;2023-01-28T00:49:19;17.20;49.30
13928;DHT22;7036;50.834;4.718;2023-01-28T00:51:46;17.20;49.20
13928;DHT22;7036;50.834;4.718;2023-01-28T00:54:14;17.20;49.20
13928;DHT22;7036;50.834;4.718;2023-01-28T00:56:41;17.20;49.20
13928;DHT22;7036;50.834;4.718;2023-01-28T00:59:09;17.20;49.30
13928;DHT22;7036;50.834;4.718;2023-01-28T01:01:37;17.20;49.20
13928;DHT22;7036;50.834;4.718;2023-01-28T01:04:05;17.20;49.10
13928;DHT22;7036;50.834;4.718;2023-01-28T01:06:35;17.20;48.60
13928;DHT22;7036;50.834;4.718;2023-01-28T01:09:01;17.20;49.20
13928;DHT22;7036;50.834;4.718;2023-01-28T01:11:28;17.10;48.90
13928;DHT22;7036;50.834;4.718;2023-01-28T01:13:58;17.20;49.40
13928;DHT22;7036;50.834;4.718;2023-01-28T01:16:25;17.20;49.20
13928;DHT22;7036;50.834;4.718;2023-01-28T01:18:52;17.10;49.30
13928;DHT22;7036;50.834;4.718;2023-01-28T01:21:21;17.10;49.50
13928;DHT22;7036;50.834;4.718;2023-01-28T01:23:48;17.10;49.30
13928;DHT22;7036;50.834;4.718;2023-01-28T01:26:16;17.10;49.30
13928;DHT22;7036;50.834;4.718;2023-01-28T01:28:43;17.10;49.10
13928;DHT22;7036;50.834;4.718;2023-01-28T01:31:14;17.20;49.30
13928;DHT22;7036;50.834;4.718;2023-01-28T01:33:40;17.10;49.20
13928;DHT22;7036;50.834;4.718;2023-01-28T01:36:09;17.10;49.30
13928;DHT22;7036;50.834;4.718;2023-01-28T01:38:36;17.10;49.40
13928;DHT22;7036;50.834;4.718;2023-01-28T01:41:04;17.10;49.30
13928;DHT22;7036;50.834;4.718;2023-01-28T01:43:52;17.10;49.30
13928;DHT22;7036;50.834;4.718;2023-01-28T01:49:05;17.10;49.30
13928;DHT22;7036;50.834;4.718;2023-01-28T01:51:30;17.10;49.40
13928;DHT22;7036;50.834;4.718;2023-01-28T01:53:56;17.00;49.30
13928;DHT22;7036;50.834;4.718;2023-01-28T01:56:27;17.00;49.20
13928;DHT22;7036;50.834;4.718;2023-01-28T01:58:52;17.00;49.10
13928;DHT22;7036;50.834;4.718;2023-01-28T02:01:20;17.00;49.20
13928;DHT22;7036;50.834;4.718;2023-01-28T02:04:19;17.00;49.70
13928;DHT22;7036;50.834;4.718;2023-01-28T02:06:42;17.00;49.20
13928;DHT22;7036;50.834;4.718;2023-01-28T02:09:29;17.00;49.20
13928;DHT22;7036;50.834;4.718;2023-01-28T02:12:00;17.00;49.20
13928;DHT22;7036;50.834;4.718;2023-01-28T02:14:25;17.00;49.20
13928;DHT22;7036;50.834;4.718;2023-01-28T02:16:54;17.00;49.20
13928;DHT22;7036;50.834;4.718;2023-01-28T02:19:21;17.00;49.10
13928;DHT22;7036;50.834;4.718;2023-01-28T02:21:57;17.00;49.50
13928;DHT22;7036;50.834;4.718;2023-01-28T02:24:44;17.00;49.00
13928;DHT22;7036;50.834;4.718;2023-01-28T02:30:06;17.00;49.00
13928;DHT22;7036;50.834;4.718;2023-01-28T02:32:38;17.00;49.10
13928;DHT22;7036;50.834;4.718;2023-01-28T02:35:17;17.10;49.10
13928;DHT22;7036;50.834;4.718;2023-01-28T02:37:57;17.00;49.00
13928;DHT22;7036;50.834;4.718;2023-01-28T02:40:23;17.10;49.10
13928;DHT22;7036;50.834;4.718;2023-01-28T02:42:48;17.00;48.90
13928;DHT22;7036;50.834;4.718;2023-01-28T02:45:31;17.10;48.90
13928;DHT22;7036;50.834;4.718;2023-01-28T02:47:56;17.10;49.00
13928;DHT22;7036;50.834;4.718;2023-01-28T02:50:23;17.10;48.90
13928;DHT22;7036;50.834;4.718;2023-01-28T03:04:01;17.10;48.80
13928;DHT22;7036;50.834;4.718;2023-01-28T03:06:39;17.10;48.80
13928;DHT22;7036;50.834;4.718;2023-01-28T03:09:05;17.10;48.80
13928;DHT22;7036;50.834;4.718;2023-01-28T03:11:54;17.10;48.80
13928;DHT22;7036;50.834;4.718;2023-01-28T03:14:37;17.10;48.80
13928;DHT22;7036;50.834;4.718;2023-01-28T03:17:27;17.10;49.40
13928;DHT22;7036;50.834;4.718;2023-01-28T03:20:12;17.10;48.80
13928;DHT22;7036;50.834;4.718;2023-01-28T03:22:58;17.10;48.80
13928;DHT22;7036;50.834;4.718;2023-01-28T03:25:44;17.10;48.90
13928;DHT22;7036;50.834;4.718;2023-01-28T03:28:30;17.00;48.90
13928;DHT22;7036;50.834;4.718;2023-01-28T03:31:16;17.00;48.90
13928;DHT22;7036;50.834;4.718;2023-01-28T03:34:00;17.00;48.90
13928;DHT22;7036;50.834;4.718;2023-01-28T03:36:47;17.00;48.80
13928;DHT22;7036;50.834;4.718;2023-01-28T03:39:22;17.00;48.80
13928;DHT22;7036;50.834;4.718;2023-01-28T03:42:05;17.00;48.70
13928;DHT22;7036;50.834;4.718;2023-01-28T03:44:30;17.00;48.70
13928;DHT22;7036;50.834;4.718;2023-01-28T03:47:20;17.00;48.90
13928;DHT22;7036;50.834;4.718;2023-01-28T03:49:45;17.00;48.80
13928;DHT22;7036;50.834;4.718;2023-01-28T03:52:18;17.00;48.70
13928;DHT22;7036;50.834;4.718;2023-01-28T03:54:46;17.00;48.70
13928;DHT22;7036;50.834;4.718;2023-01-28T03:57:11;17.00;48.60
13928;DHT22;7036;50.834;4.718;2023-01-28T03:59:38;17.00;48.60
13928;DHT22;7036;50.834;4.718;2023-01-28T04:02:05;17.00;48.60
13928;DHT22;7036;50.834;4.718;2023-01-28T04:04:33;17.00;48.70
13928;DHT22;7036;50.834;4.718;2023-01-28T04:07:01;17.00;48.70
13928;DHT22;7036;50.834;4.718;2023-01-28T04:09:29;17.00;48.70
13928;DHT22;7036;50.834;4.718;2023-01-28T04:11:57;17.00;48.60
13928;DHT22;7036;50.834;4.718;2023-01-28T04:14:25;17.00;48.60
13928;DHT22;7036;50.834;4.718;2023-01-28T04:16:53;17.00;48.60
13928;DHT22;7036;50.834;4.718;2023-01-28T04:19:20;17.00;48.40
13928;DHT22;7036;50.834;4.718;2023-01-28T04:21:48;17.00;48.50
13928;DHT22;7036;50.834;4.718;2023-01-28T04:24:18;17.00;48.40
13928;DHT22;7036;50.834;4.718;2023-01-28T04:26:44;17.00;48.40
13928;DHT22;7036;50.834;4.718;2023-01-28T04:29:11;17.00;48.40
13928;DHT22;7036;50.834;4.718;2023-01-28T04:31:39;17.00;48.90
13928;DHT22;7036;50.834;4.718;2023-01-28T04:34:07;17.00;48.50
13928;DHT22;7036;50.834;4.718;2023-01-28T04:36:35;17.00;48.50
13928;DHT22;7036;50.834;4.718;2023-01-28T04:39:03;17.00;48.50
13928;DHT22;7036;50.834;4.718;2023-01-28T04:41:32;17.00;48.60
13928;DHT22;7036;50.834;4.718;2023-01-28T04:43:59;17.00;48.30
13928;DHT22;7036;50.834;4.718;2023-01-28T04:46:27;17.00;48.40
13928;DHT22;7036;50.834;4.718;2023-01-28T04:48:55;17.00;48.40
13928;DHT22;7036;50.834;4.718;2023-01-28T04:51:23;17.00;48.50
13928;DHT22;7036;50.834;4.718;2023-01-28T04:53:52;17.00;48.40
13928;DHT22;7036;50.834;4.718;2023-01-28T04:56:19;17.00;48.30
13928;DHT22;7036;50.834;4.718;2023-01-28T04:58:46;17.00;48.30
13928;DHT22;7036;50.834;4.718;2023-01-28T05:01:14;17.00;48.50
13928;DHT22;7036;50.834;4.718;2023-01-28T05:03:42;17.00;48.50
13928;DHT22;7036;50.834;4.718;2023-01-28T05:06:09;17.00;48.40
13928;DHT22;7036;50.834;4.718;2023-01-28T05:08:37;17.00;48.40
13928;DHT22;7036;50.834;4.718;2023-01-28T05:11:04;17.00;48.30
13928;DHT22;7036;50.834;4.718;2023-01-28T05:13:32;17.00;48.40
13928;DHT22;7036;50.834;4.718;2023-01-28T05:15:59;17.00;48.30
13928;DHT22;7036;50.834;4.718;2023-01-28T05:18:27;17.00;48.40
13928;DHT22;7036;50.834;4.718;2023-01-28T05:20:56;17.00;48.40
13928;DHT22;7036;50.834;4.718;2023-01-28T05:23:23;17.00;48.30
13928;DHT22;7036;50.834;4.718;2023-01-28T05:25:53;17.00;48.40
13928;DHT22;7036;50.834;4.718;2023-01-28T05:28:20;17.00;48.20
13928;DHT22;7036;50.834;4.718;2023-01-28T05:30:48;17.00;48.40
13928;DHT22;7036;50.834;4.718;2023-01-28T05:33:16;17.00;48.40
13928;DHT22;7036;50.834;4.718;2023-01-28T05:35:44;17.00;48.30
13928;DHT22;7036;50.834;4.718;2023-01-28T05:38:12;17.00;48.40
13928;DHT22;7036;50.834;4.718;2023-01-28T05:40:39;17.00;48.30
13928;DHT22;7036;50.834;4.718;2023-01-28T05:43:07;17.00;48.40
13928;DHT22;7036;50.834;4.718;2023-01-28T05:45:35;17.00;48.40
13928;DHT22;7036;50.834;4.718;2023-01-28T05:48:03;17.00;48.30
13928;DHT22;7036;50.834;4.718;2023-01-28T05:50:30;17.10;48.30
13928;DHT22;7036;50.834;4.718;2023-01-28T05:52:57;17.10;48.20
13928;DHT22;7036;50.834;4.718;2023-01-28T05:55:25;17.10;48.40
13928;DHT22;7036;50.834;4.718;2023-01-28T05:57:52;17.10;48.20
13928;DHT22;7036;50.834;4.718;2023-01-28T06:00:21;17.10;48.50
13928;DHT22;7036;50.834;4.718;2023-01-28T06:02:49;17.20;48.30
13928;DHT22;7036;50.834;4.718;2023-01-28T06:05:15;17.20;48.40
13928;DHT22;7036;50.834;4.718;2023-01-28T06:07:44;17.30;48.30
13928;DHT22;7036;50.834;4.718;2023-01-28T06:10:10;17.20;48.10
13928;DHT22;7036;50.834;4.718;2023-01-28T06:12:38;17.40;48.40
13928;DHT22;7036;50.834;4.718;2023-01-28T06:15:06;17.40;48.20
13928;DHT22;7036;50.834;4.718;2023-01-28T06:17:33;17.40;48.30
13928;DHT22;7036;50.834;4.718;2023-01-28T06:20:01;17.40;48.10
13928;DHT22;7036;50.834;4.718;2023-01-28T06:22:30;17.40;47.80
13928;DHT22;7036;50.834;4.718;2023-01-28T06:24:57;17.40;47.70
13928;DHT22;7036;50.834;4.718;2023-01-28T06:27:24;17.50;48.60
13928;DHT22;7036;50.834;4.718;2023-01-28T06:29:52;17.50;47.90
13928;DHT22;7036;50.834;4.718;2023-01-28T06:32:20;17.50;48.10
13928;DHT22;7036;50.834;4.718;2023-01-28T06:34:48;17.60;48.10
13928;DHT22;7036;50.834;4.718;2023-01-28T06:37:16;17.60;48.00
13928;DHT22;7036;50.834;4.718;2023-01-28T06:39:44;17.60;48.00
13928;DHT22;7036;50.834;4.718;2023-01-28T06:42:13;17.60;48.00
13928;DHT22;7036;50.834;4.718;2023-01-28T06:44:39;17.60;47.90
13928;DHT22;7036;50.834;4.718;2023-01-28T06:47:08;17.70;48.00
13928;DHT22;7036;50.834;4.718;2023-01-28T06:49:35;17.70;47.80
13928;DHT22;7036;50.834;4.718;2023-01-28T06:52:03;17.70;47.80
13928;DHT22;7036;50.834;4.718;2023-01-28T06:54:30;17.70;47.90
13928;DHT22;7036;50.834;4.718;2023-01-28T06:56:57;17.70;47.70
13928;DHT22;7036;50.834;4.718;2023-01-28T06:59:25;17.70;47.90
13928;DHT22;7036;50.834;4.718;2023-01-28T07:01:53;17.70;47.90
13928;DHT22;7036;50.834;4.718;2023-01-28T07:04:21;17.80;47.90
13928;DHT22;7036;50.834;4.718;2023-01-28T07:06:49;17.80;47.90
13928;DHT22;7036;50.834;4.718;2023-01-28T07:09:17;17.80;47.80
13928;DHT22;7036;50.834;4.718;2023-01-28T07:11:45;17.80;47.80
13928;DHT22;7036;50.834;4.718;2023-01-28T07:14:13;17.80;47.80
13928;DHT22;7036;50.834;4.718;2023-01-28T07:16:41;17.80;47.70
13928;DHT22;7036;50.834;4.718;2023-01-28T07:19:09;17.80;47.80
13928;DHT22;7036;50.834;4.718;2023-01-28T07:21:38;17.90;47.70
13928;DHT22;7036;50.834;4.718;2023-01-28T07:24:04;17.80;47.60
13928;DHT22;7036;50.834;4.718;2023-01-28T07:26:32;17.90;47.60
13928;DHT22;7036;50.834;4.718;2023-01-28T07:28:59;17.90;47.50
13928;DHT22;7036;50.834;4.718;2023-01-28T07:31:27;17.90;47.60
13928;DHT22;7036;50.834;4.718;2023-01-28T07:33:54;17.90;47.50
13928;DHT22;7036;50.834;4.718;2023-01-28T07:36:22;17.90;47.60
13928;DHT22;7036;50.834;4.718;2023-01-28T07:38:50;17.90;48.20
13928;DHT22;7036;50.834;4.718;2023-01-28T07:41:17;18.00;47.60
13928;DHT22;7036;50.834;4.718;2023-01-28T07:43:45;17.90;47.40
13928;DHT22;7036;50.834;4.718;2023-01-28T07:46:13;18.00;47.50
13928;DHT22;7036;50.834;4.718;2023-01-28T07:48:41;17.90;47.40
13928;DHT22;7036;50.834;4.718;2023-01-28T07:51:09;18.00;47.40
13928;DHT22;7036;50.834;4.718;2023-01-28T07:53:37;18.00;47.40
13928;DHT22;7036;50.834;4.718;2023-01-28T07:56:05;18.00;47.40
13928;DHT22;7036;50.834;4.718;2023-01-28T07:58:32;18.00;47.30
13928;DHT22;7036;50.834;4.718;2023-01-28T08:01:01;18.00;47.30
13928;DHT22;7036;50.834;4.718;2023-01-28T08:03:29;18.00;47.30
13928;DHT22;7036;50.834;4.718;2023-01-28T08:05:57;18.00;47.20
13928;DHT22;7036;50.834;4.718;2023-01-28T08:08:25;18.10;47.30
13928;DHT22;7036;50.834;4.718;2023-01-28T08:10:52;18.00;47.10
13928;DHT22;7036;50.834;4.718;2023-01-28T08:13:20;18.00;47.20
13928;DHT22;7036;50.834;4.718;2023-01-28T08:15:48;18.10;47.20
13928;DHT22;7036;50.834;4.718;2023-01-28T08:18:15;18.10;47.10
13928;DHT22;7036;50.834;4.718;2023-01-28T08:20:43;18.10;47.20
13928;DHT22;7036;50.834;4.718;2023-01-28T08:23:12;18.10;47.10
13928;DHT22;7036;50.834;4.718;2023-01-28T08:25:39;18.10;47.00
13928;DHT22;7036;50.834;4.718;2023-01-28T08:28:06;18.10;46.90
13928;DHT22;7036;50.834;4.718;2023-01-28T08:30:35;18.10;47.00
13928;DHT22;7036;50.834;4.718;2023-01-28T08:33:01;18.10;46.90
13928;DHT22;7036;50.834;4.718;2023-01-28T08:35:29;18.20;47.00
13928;DHT22;7036;50.834;4.718;2023-01-28T08:37:58;18.20;46.90
13928;DHT22;7036;50.834;4.718;2023-01-28T08:40:25;18.10;46.80
13928;DHT22;7036;50.834;4.718;2023-01-28T08:42:53;18.20;46.90
13928;DHT22;7036;50.834;4.718;2023-01-28T08:45:21;18.20;46.90
13928;DHT22;7036;50.834;4.718;2023-01-28T08:47:54;18.10;46.70
13928;DHT22;7036;50.834;4.718;2023-01-28T08:50:21;18.20;46.80
13928;DHT22;7036;50.834;4.718;2023-01-28T08:52:54;18.20;46.80
13928;DHT22;7036;50.834;4.718;2023-01-28T08:55:17;18.20;46.80
13928;DHT22;7036;50.834;4.718;2023-01-28T08:57:45;18.20;46.70
13928;DHT22;7036;50.834;4.718;2023-01-28T09:00:12;18.20;46.60
13928;DHT22;7036;50.834;4.718;2023-01-28T09:02:41;18.20;46.60
13928;DHT22;7036;50.834;4.718;2023-01-28T09:05:07;18.20;46.50
13928;DHT22;7036;50.834;4.718;2023-01-28T09:07:36;18.20;46.60
13928;DHT22;7036;50.834;4.718;2023-01-28T09:10:04;18.20;46.60
13928;DHT22;7036;50.834;4.718;2023-01-28T09:12:32;18.30;46.60
13928;DHT22;7036;50.834;4.718;2023-01-28T09:14:59;18.20;46.40
13928;DHT22;7036;50.834;4.718;2023-01-28T09:17:27;18.20;46.50
13928;DHT22;7036;50.834;4.718;2023-01-28T09:19:54;18.30;47.30
13928;DHT22;7036;50.834;4.718;2023-01-28T09:22:22;18.30;46.50
13928;DHT22;7036;50.834;4.718;2023-01-28T09:24:50;18.30;46.40
13928;DHT22;7036;50.834;4.718;2023-01-28T09:27:18;18.30;46.30
13928;DHT22;7036;50.834;4.718;2023-01-28T09:29:46;18.30;45.70
13928;DHT22;7036;50.834;4.718;2023-01-28T09:32:14;18.30;46.40
13928;DHT22;7036;50.834;4.718;2023-01-28T09:34:41;18.30;46.40
13928;DHT22;7036;50.834;4.718;2023-01-28T09:37:10;18.30;46.50
13928;DHT22;7036;50.834;4.718;2023-01-28T09:39:37;18.30;46.20
13928;DHT22;7036;50.834;4.718;2023-01-28T09:45:21;18.40;46.20
13928;DHT22;7036;50.834;4.718;2023-01-28T09:47:49;18.30;46.20
13928;DHT22;7036;50.834;4.718;2023-01-28T09:52:44;18.30;46.20
13928;DHT22;7036;50.834;4.718;2023-01-28T09:55:14;18.40;46.20
13928;DHT22;7036;50.834;4.718;2023-01-28T09:57:44;18.40;46.80
13928;DHT22;7036;50.834;4.718;2023-01-28T10:00:13;18.40;46.00
13928;DHT22;7036;50.834;4.718;2023-01-28T10:02:43;18.40;45.80
13928;DHT22;7036;50.834;4.718;2023-01-28T10:08:13;18.30;46.00
13928;DHT22;7036;50.834;4.718;2023-01-28T10:11:40;18.30;46.10
13928;DHT22;7036;50.834;4.718;2023-01-28T10:13:28;18.40;46.10
13928;DHT22;7036;50.834;4.718;2023-01-28T10:19:09;18.30;46.00
13928;DHT22;7036;50.834;4.718;2023-01-28T10:21:38;18.40;46.00
13928;DHT22;7036;50.834;4.718;2023-01-28T10:26:40;18.30;45.50
13928;DHT22;7036;50.834;4.718;2023-01-28T10:29:20;18.30;45.90
13928;DHT22;7036;50.834;4.718;2023-01-28T10:31:56;18.30;45.70
13928;DHT22;7036;50.834;4.718;2023-01-28T10:34:21;18.30;45.80
13928;DHT22;7036;50.834;4.718;2023-01-28T10:36:49;18.30;45.90
13928;DHT22;7036;50.834;4.718;2023-01-28T10:39:16;18.30;45.90
13928;DHT22;7036;50.834;4.718;2023-01-28T10:41:42;18.30;45.80
13928;DHT22;7036;50.834;4.718;2023-01-28T10:44:23;18.30;45.70
13928;DHT22;7036;50.834;4.718;2023-01-28T10:46:45;18.30;45.70
13928;DHT22;7036;50.834;4.718;2023-01-28T10:49:12;18.30;45.60
13928;DHT22;7036;50.834;4.718;2023-01-28T10:51:39;18.30;45.70
13928;DHT22;7036;50.834;4.718;2023-01-28T10:54:23;18.30;45.70
13928;DHT22;7036;50.834;4.718;2023-01-28T10:56:58;18.30;45.20
13928;DHT22;7036;50.834;4.718;2023-01-28T10:59:27;18.30;45.80
13928;DHT22;7036;50.834;4.718;2023-01-28T11:01:57;18.30;45.70
13928;DHT22;7036;50.834;4.718;2023-01-28T11:04:29;18.30;45.70
13928;DHT22;7036;50.834;4.718;2023-01-28T11:06:53;18.40;45.80
13928;DHT22;7036;50.834;4.718;2023-01-28T11:09:33;18.30;45.70
13928;DHT22;7036;50.834;4.718;2023-01-28T11:11:50;18.40;45.70
13928;DHT22;7036;50.834;4.718;2023-01-28T11:14:24;18.40;45.80
13928;DHT22;7036;50.834;4.718;2023-01-28T11:16:48;18.40;45.50
13928;DHT22;7036;50.834;4.718;2023-01-28T11:19:16;18.40;45.60
13928;DHT22;7036;50.834;4.718;2023-01-28T11:21:47;18.40;45.70
13928;DHT22;7036;50.834;4.718;2023-01-28T11:24:14;18.30;45.50
13928;DHT22;7036;50.834;4.718;2023-01-28T11:26:44;18.40;45.70
13928;DHT22;7036;50.834;4.718;2023-01-28T11:29:25;18.40;45.60
13928;DHT22;7036;50.834;4.718;2023-01-28T11:31:49;18.40;45.50
13928;DHT22;7036;50.834;4.718;2023-01-28T11:34:18;18.40;45.20
13928;DHT22;7036;50.834;4.718;2023-01-28T11:36:52;18.40;45.70
13928;DHT22;7036;50.834;4.718;2023-01-28T11:39:24;18.40;45.40
13928;DHT22;7036;50.834;4.718;2023-01-28T11:41:51;18.40;45.60
13928;DHT22;7036;50.834;4.718;2023-01-28T11:44:24;18.40;45.80
13928;DHT22;7036;50.834;4.718;2023-01-28T11:47:15;18.40;45.70
13928;DHT22;7036;50.834;4.718;2023-01-28T12:00:46;18.40;46.00
13928;DHT22;7036;50.834;4.718;2023-01-28T12:05:54;18.50;45.50
13928;DHT22;7036;50.834;4.718;2023-01-28T12:08:25;18.50;45.30
13928;DHT22;7036;50.834;4.718;2023-01-28T12:11:15;18.60;46.20
13928;DHT22;7036;50.834;4.718;2023-01-28T12:16:24;18.60;45.30
13928;DHT22;7036;50.834;4.718;2023-01-28T12:22:05;18.70;45.20
13928;DHT22;7036;50.834;4.718;2023-01-28T12:27:25;18.80;45.10
13928;DHT22;7036;50.834;4.718;2023-01-28T12:29:54;18.80;45.10
13928;DHT22;7036;50.834;4.718;2023-01-28T12:32:37;18.80;45.00
13928;DHT22;7036;50.834;4.718;2023-01-28T12:35:06;18.80;44.90
13928;DHT22;7036;50.834;4.718;2023-01-28T12:37:49;18.90;45.00
13928;DHT22;7036;50.834;4.718;2023-01-28T12:43:16;18.90;44.90
13928;DHT22;7036;50.834;4.718;2023-01-28T12:45:44;18.90;44.80
13928;DHT22;7036;50.834;4.718;2023-01-28T12:48:08;18.90;44.80
13928;DHT22;7036;50.834;4.718;2023-01-28T12:50:36;18.90;44.80
13928;DHT22;7036;50.834;4.718;2023-01-28T12:55:59;18.90;44.70
13928;DHT22;7036;50.834;4.718;2023-01-28T12:58:20;19.00;44.70
13928;DHT22;7036;50.834;4.718;2023-01-28T13:00:49;19.00;44.70
13928;DHT22;7036;50.834;4.718;2023-01-28T13:03:25;19.00;44.70
13928;DHT22;7036;50.834;4.718;2023-01-28T13:05:52;19.00;44.60
13928;DHT22;7036;50.834;4.718;2023-01-28T13:08:25;19.00;44.70
13928;DHT22;7036;50.834;4.718;2023-01-28T13:10:51;19.00;44.50
13928;DHT22;7036;50.834;4.718;2023-01-28T13:13:34;19.00;44.60
13928;DHT22;7036;50.834;4.718;2023-01-28T13:16:01;19.00;44.60
13928;DHT22;7036;50.834;4.718;2023-01-28T13:21:28;19.00;44.60
13928;DHT22;7036;50.834;4.718;2023-01-28T13:23:47;19.10;44.70
13928;DHT22;7036;50.834;4.718;2023-01-28T13:28:50;19.10;44.50
13928;DHT22;7036;50.834;4.718;2023-01-28T13:31:19;19.10;44.50
13928;DHT22;7036;50.834;4.718;2023-01-28T13:33:59;19.10;44.30
13928;DHT22;7036;50.834;4.718;2023-01-28T13:36:24;19.20;44.30
13928;DHT22;7036;50.834;4.718;2023-01-28T13:46:43;19.30;44.00
13928;DHT22;7036;50.834;4.718;2023-01-28T13:49:18;19.30;44.70
13928;DHT22;7036;50.834;4.718;2023-01-28T13:52:30;19.30;44.60
13928;DHT22;7036;50.834;4.718;2023-01-28T13:54:17;19.30;44.10
13928;DHT22;7036;50.834;4.718;2023-01-28T14:02:21;19.40;44.80
13928;DHT22;7036;50.834;4.718;2023-01-28T14:13:15;19.40;44.50
13928;DHT22;7036;50.834;4.718;2023-01-28T14:18:38;19.40;44.30
13928;DHT22;7036;50.834;4.718;2023-01-28T14:21:07;19.40;44.30
13928;DHT22;7036;50.834;4.718;2023-01-28T14:23:32;19.40;44.20
13928;DHT22;7036;50.834;4.718;2023-01-28T14:26:08;19.40;44.10
13928;DHT22;7036;50.834;4.718;2023-01-28T14:28:39;19.40;44.20
13928;DHT22;7036;50.834;4.718;2023-01-28T14:31:11;19.40;44.10
13928;DHT22;7036;50.834;4.718;2023-01-28T14:33:38;19.50;44.10
13928;DHT22;7036;50.834;4.718;2023-01-28T14:36:04;19.50;44.00
13928;DHT22;7036;50.834;4.718;2023-01-28T14:38:35;19.50;44.00
13928;DHT22;7036;50.834;4.718;2023-01-28T14:41:00;19.50;44.10
13928;DHT22;7036;50.834;4.718;2023-01-28T14:43:28;19.50;44.00
13928;DHT22;7036;50.834;4.718;2023-01-28T14:46:11;19.50;44.10
13928;DHT22;7036;50.834;4.718;2023-01-28T14:52:01;19.50;43.90
13928;DHT22;7036;50.834;4.718;2023-01-28T14:59:57;19.60;43.80
13928;DHT22;7036;50.834;4.718;2023-01-28T15:02:26;19.60;44.00
13928;DHT22;7036;50.834;4.718;2023-01-28T15:04:53;19.60;44.00
13928;DHT22;7036;50.834;4.718;2023-01-28T15:07:24;19.60;44.00
13928;DHT22;7036;50.834;4.718;2023-01-28T15:10:03;19.60;43.90
13928;DHT22;7036;50.834;4.718;2023-01-28T15:12:34;19.60;43.90
13928;DHT22;7036;50.834;4.718;2023-01-28T15:14:57;19.60;43.90
13928;DHT22;7036;50.834;4.718;2023-01-28T15:17:25;19.60;44.00
13928;DHT22;7036;50.834;4.718;2023-01-28T15:19:56;19.60;44.00
13928;DHT22;7036;50.834;4.718;2023-01-28T15:22:25;19.60;43.90
13928;DHT22;7036;50.834;4.718;2023-01-28T15:24:50;19.60;44.10
13928;DHT22;7036;50.834;4.718;2023-01-28T15:27:17;19.50;44.00
13928;DHT22;7036;50.834;4.718;2023-01-28T15:29:53;19.60;44.00
13928;DHT22;7036;50.834;4.718;2023-01-28T15:32:24;19.60;44.00
13928;DHT22;7036;50.834;4.718;2023-01-28T15:34:48;19.60;44.00
13928;DHT22;7036;50.834;4.718;2023-01-28T15:37:16;19.50;43.90
13928;DHT22;7036;50.834;4.718;2023-01-28T15:39:44;19.50;44.00
13928;DHT22;7036;50.834;4.718;2023-01-28T15:42:20;19.50;44.00
13928;DHT22;7036;50.834;4.718;2023-01-28T15:44:47;19.50;43.80
13928;DHT22;7036;50.834;4.718;2023-01-28T15:47:19;19.50;43.90
13928;DHT22;7036;50.834;4.718;2023-01-28T15:49:44;19.50;43.80
13928;DHT22;7036;50.834;4.718;2023-01-28T15:52:10;19.50;43.70
13928;DHT22;7036;50.834;4.718;2023-01-28T15:54:43;19.50;43.70
13928;DHT22;7036;50.834;4.718;2023-01-28T15:57:21;19.50;43.60
13928;DHT22;7036;50.834;4.718;2023-01-28T15:59:48;19.50;43.60
13928;DHT22;7036;50.834;4.718;2023-01-28T16:02:20;19.50;43.60
13928;DHT22;7036;50.834;4.718;2023-01-28T16:04:56;19.50;43.60
13928;DHT22;7036;50.834;4.718;2023-01-28T16:07:23;19.50;43.60
13928;DHT22;7036;50.834;4.718;2023-01-28T16:09:53;19.50;43.60
13928;DHT22;7036;50.834;4.718;2023-01-28T16:12:18;19.40;43.60
13928;DHT22;7036;50.834;4.718;2023-01-28T16:14:59;19.40;43.50
13928;DHT22;7036;50.834;4.718;2023-01-28T16:17:16;19.50;43.40
13928;DHT22;7036;50.834;4.718;2023-01-28T16:19:45;19.40;44.20
13928;DHT22;7036;50.834;4.718;2023-01-28T16:22:28;19.40;43.30
13928;DHT22;7036;50.834;4.718;2023-01-28T16:24:52;19.40;43.30
13928;DHT22;7036;50.834;4.718;2023-01-28T16:27:24;19.40;43.30
13928;DHT22;7036;50.834;4.718;2023-01-28T16:29:49;19.40;43.20
13928;DHT22;7036;50.834;4.718;2023-01-28T16:35:02;19.40;43.60
13928;DHT22;7036;50.834;4.718;2023-01-28T16:37:28;19.40;43.10
13928;DHT22;7036;50.834;4.718;2023-01-28T16:39:56;19.40;43.20
13928;DHT22;7036;50.834;4.718;2023-01-28T16:42:24;19.40;43.30
13928;DHT22;7036;50.834;4.718;2023-01-28T16:44:52;19.40;43.30
13928;DHT22;7036;50.834;4.718;2023-01-28T16:47:20;19.40;43.30
13928;DHT22;7036;50.834;4.718;2023-01-28T16:49:48;19.40;43.40
13928;DHT22;7036;50.834;4.718;2023-01-28T16:52:15;19.40;43.20
13928;DHT22;7036;50.834;4.718;2023-01-28T16:54:43;19.40;43.30
13928;DHT22;7036;50.834;4.718;2023-01-28T16:57:15;19.40;43.00
13928;DHT22;7036;50.834;4.718;2023-01-28T16:59:41;19.40;43.10
13928;DHT22;7036;50.834;4.718;2023-01-28T17:02:12;19.40;43.30
13928;DHT22;7036;50.834;4.718;2023-01-28T17:04:38;19.40;43.20
13928;DHT22;7036;50.834;4.718;2023-01-28T17:07:06;19.40;43.30
13928;DHT22;7036;50.834;4.718;2023-01-28T17:09:36;19.40;43.10
13928;DHT22;7036;50.834;4.718;2023-01-28T17:12:04;19.40;43.00
13928;DHT22;7036;50.834;4.718;2023-01-28T17:14:32;19.40;43.30
13928;DHT22;7036;50.834;4.718;2023-01-28T17:16:59;19.40;43.20
13928;DHT22;7036;50.834;4.718;2023-01-28T17:19:26;19.40;43.00
13928;DHT22;7036;50.834;4.718;2023-01-28T17:21:54;19.40;42.80
13928;DHT22;7036;50.834;4.718;2023-01-28T17:24:21;19.40;42.90
13928;DHT22;7036;50.834;4.718;2023-01-28T17:26:50;19.40;43.00
13928;DHT22;7036;50.834;4.718;2023-01-28T17:29:15;19.40;42.80
13928;DHT22;7036;50.834;4.718;2023-01-28T17:31:42;19.40;42.90
13928;DHT22;7036;50.834;4.718;2023-01-28T17:34:09;19.40;42.80
13928;DHT22;7036;50.834;4.718;2023-01-28T17:36:37;19.40;42.80
13928;DHT22;7036;50.834;4.718;2023-01-28T17:39:04;19.40;42.80